Terminal Aerodrome Forecast
Issued by NWS Omaha/Valley, NE

Home | Current Version | Previous Version | Text Only | Print | Product List | Glossary On
Versions: 1 2 3 4 5 6 7 8 9 10 11 12 13 14 15 16 17 18 19 20 21 22 23 24 25 26 27 28 29 30 31 32 33 34 35 36 37 38 39 40 41 42 43
000
FTUS43 KOAX 252327
TAFOFK
TAF
KOFK 252327Z 2600/2624 18010KT P6SM OVC080
      TEMPO 2602/2604 3SM -RASN BKN040
     FM260400 29013KT 1SM -SN OVC010
     FM260600 31020G28KT P6SM OVC018
     FM261200 33022G29KT P6SM BKN020 OVC050 PROB30 2614/2618 5SM
      -SN=

USA.gov is the U.S. government's official web portal to all federal, state and local government web resources and services.